• Join FlightAware (Why Join?)
  • Login
  • US Flag 
Rudolph Flight #1: Arrived! 
04:47PM EST


 

Airport Tracker/Info


-or-


 

Live Flight TrackerFlight Track Log ✈ VP-BLX ✈ 28-Nov-2013 ✈ KMIA - UUEE / SVO

Flight Track Log - Related Links

Times and Time Zones

All times are in EST time to prevent confusion due to time zone crossing. See the VP-BLX flight status page for this flight to view local times or setup timezone preferences in your user account.

Time Position Orientation Groundspeed Altitude Reporting Facility
EST Latitude Longitude Course Direction KTS MPH feet Rate Location/Type
07:34PM 25.8006 -80.2606 87° East 170 196 1,200  Level Miami Center
07:36PM 25.8042 -80.1917 87° East 217 250 2,700 1,440 Climbing Miami Center
07:36PM 25.8019 -80.1961 241° Southwest 220 253 2,800 1,860 Climbing Miami Center
07:37PM 25.8247 -80.1206 71° East 254 292 4,600 1,920 Climbing Miami Center
07:37PM 25.8183 -80.1228 197° South 265 305 4,800 2,460 Climbing Miami Center
07:38PM 25.8575 -80.0544 57° Northeast 269 310 7,100 2,280 Climbing Miami Center
07:39PM 25.8967 -79.9794 60° Northeast 291 335 9,300 1,800 Climbing Miami Center
07:40PM 25.9403 -79.8950 60° Northeast 291 335 10,800 1,500 Climbing Miami Center
07:41PM 25.9922 -79.7992 59° Northeast 319 367 12,300 1,800 Climbing Miami Center
07:42PM 26.0506 -79.7036 56° Northeast 352 405 14,400 1,920 Climbing Miami Center
07:43PM 26.1131 -79.6033 55° Northeast 380 437 16,200 1,560 Climbing Miami Center
07:48PM 26.7229 -79.2170 55° Northeast 457 526 25,100 1,440 Climbing FlightAware ADS-B (KMCO)
07:49PM 26.8502 -79.1535 24° Northeast 455 524 26,500 1,260 Climbing FlightAware ADS-B (KMCO)
07:50PM 26.9415 -79.1272 14° North 458 527 27,500 1,200 Climbing FlightAware ADS-B (KMCO)
07:51PM 27.0075 -79.1080 15° North 462 532 28,000 960 Climbing FlightAware ADS-B (KMCO)
07:51PM 27.0700 -79.0897 15° North 465 535 28,500 960 Climbing FlightAware ADS-B (KMCO)
07:52PM 27.1772 -79.0585 15° North 468 539 29,300 960 Climbing FlightAware ADS-B (KMCO)
07:53PM 27.2391 -79.0405 15° North 469 540 29,800 960 Climbing FlightAware ADS-B (KMCO)
07:53PM 27.3029 -79.0219 15° North 470 541 30,300 1,080 Climbing FlightAware ADS-B (KMCO)
07:54PM 27.3645 -79.0039 15° North 468 539 30,900 1,200 Climbing FlightAware ADS-B (KMCO)
07:54PM 27.4296 -78.9849 15° North 465 535 31,500 1,080 Climbing FlightAware ADS-B (KMCO)
07:55PM 27.4915 -78.9668 15° North 464 534 32,000 900 Climbing FlightAware ADS-B (KMCO)
07:55PM 27.5545 -78.9483 15° North 464 534 32,400 900 Climbing FlightAware ADS-B (KMCO)
07:56PM 27.6571 -78.9180 15° North 464 534 33,200 1,020 Climbing FlightAware ADS-B (KMCO)
07:57PM 27.7419 -78.8928 15° North 461 531 34,000 900 Climbing FlightAware ADS-B (KMCO)
07:58PM 27.9497 -78.8312 15° North 466 536 35,400 720 Climbing FlightAware ADS-B (KMCO)
07:59PM 28.0142 -78.8120 15° North 471 542 35,700 540 Climbing FlightAware ADS-B (KMCO)
07:59PM 28.0758 -78.7937 15° North 476 548 36,000 600 Climbing FlightAware ADS-B (KMCO)
08:00PM 28.1425 -78.7739 15° North 480 552 36,300 420 Climbing FlightAware ADS-B (KMCO)
08:01PM 28.2485 -78.7422 15° North 488 562 36,600 120 Climbing FlightAware ADS-B (KMCO)
08:06PM 28.9014 -78.5457 15° North 486 559 37,000  Climbing FlightAware ADS-B (KMCO)
08:07PM 29.1417 -78.4728 15° North 486 559 37,000  Level FlightAware ADS-B (KMCO)
08:09PM 29.2664 -78.4381 15° North 473 544 37,000  Level Miami Center
08:10PM 29.4214 -78.3903 15° North 473 544 37,000  Level Miami Center
08:11PM 29.5594 -78.3542 13° North 474 545 37,000  Level Miami Center
08:12PM 29.6914 -78.3106 16° North 482 555 37,000  Level Miami Center
08:12PM 29.7614 -78.2778 22° Northeast 486 559 37,000  Level Jacksonville Center
08:13PM 29.9042 -78.2472 11° North 512 589 37,000  Level Jacksonville Center
08:14PM 30.0319 -78.1978 19° North 504 580 37,000  Level Jacksonville Center
08:15PM 30.1617 -78.1556 16° North 485 558 37,000  Level Jacksonville Center
08:16PM 30.2942 -78.1200 13° North 479 551 37,000  Level Jacksonville Center
08:17PM 30.4200 -78.0800 15° North 479 551 37,000  Level Jacksonville Center
08:18PM 30.5519 -78.0372 16° North 485 558 37,000  Level Jacksonville Center
08:19PM 30.6897 -77.9892 17° North 495 570 37,000  Level Jacksonville Center
08:20PM 30.8258 -77.9458 15° North 495 570 37,000  Level Jacksonville Center
08:21PM 30.9578 -77.9025 16° North 495 570 37,000  Level Jacksonville Center
08:22PM 31.0919 -77.8617 15° North 490 564 37,000  Level Jacksonville Center
08:23PM 31.2258 -77.8203 15° North 490 564 37,000  Level Jacksonville Center
08:24PM 31.3622 -77.7814 14° North 490 564 37,000  Level Jacksonville Center
08:25PM 31.4939 -77.7400 15° North 490 564 37,000  Level Jacksonville Center
08:26PM 31.6297 -77.6886 18° North 490 564 37,000  Level Jacksonville Center
08:27PM 31.7617 -77.6494 14° North 490 564 37,000  Level Jacksonville Center
08:28PM 31.8975 -77.6050 16° North 490 564 37,000  Level Jacksonville Center
08:29PM 32.0314 -77.5606 16° North 490 564 37,000  Level Jacksonville Center
08:30PM 32.1672 -77.5183 15° North 490 564 37,000  Level Jacksonville Center
08:31PM 32.3011 -77.4786 14° North 490 564 37,000  Level Jacksonville Center
08:32PM 32.4350 -77.4311 17° North 490 564 37,000  Level Jacksonville Center
08:33PM 32.5686 -77.3886 15° North 490 564 37,000  Level Jacksonville Center
08:34PM 32.7003 -77.3461 15° North 490 564 37,000  Level Jacksonville Center
08:36PM 32.9125 -77.2783 15° North 482 555 37,000  Level Washington Center
08:37PM 33.0447 -77.2317 16° North 482 555 37,000  Level Washington Center
08:38PM 33.1786 -77.1894 15° North 495 570 37,000  Level Washington Center
08:39PM 33.3169 -77.1425 16° North 501 577 37,000  Level Washington Center
08:40PM 33.4531 -77.0978 15° North 501 577 37,000  Level Washington Center
08:41PM 33.5850 -77.0528 16° North 501 577 37,000  Level Washington Center
08:42PM 33.7211 -77.0075 15° North 496 571 37,000  Level Washington Center
08:43PM 33.8553 -76.9600 16° North 496 571 37,000  Level Washington Center
08:44PM 33.9872 -76.9194 14° North 496 571 37,000  Level Washington Center
08:45PM 34.1211 -76.8739 16° North 496 571 37,000  Level Washington Center
08:46PM 34.2553 -76.8258 16° North 496 571 37,000  Level Washington Center
08:47PM 34.3869 -76.7825 15° North 496 571 37,000  Level Washington Center
08:48PM 34.5211 -76.7364 16° North 490 564 37,000  Level Washington Center
08:49PM 34.6528 -76.6903 16° North 490 564 37,000  Level Washington Center
08:50PM 34.7847 -76.6442 16° North 490 564 37,000  Level Washington Center
08:51PM 34.9144 -76.6003 16° North 495 570 37,000  Level Washington Center
08:52PM 35.0506 -76.5536 16° North 495 570 37,000  Level Washington Center
08:53PM 35.1844 -76.5044 17° North 495 570 37,000  Level Washington Center
08:54PM 35.3289 -76.4525 16° North 495 570 37,000  Level Washington Center
08:55PM 35.4606 -76.4081 15° North 495 570 37,000  Level Washington Center
08:56PM 35.5944 -76.3636 15° North 495 570 37,000  Level Washington Center
08:57PM 35.7283 -76.3136 17° North 495 570 37,000  Level Washington Center
08:59PM 36.0075 -76.2158 17° North 501 577 37,000  Level FlightAware ADS-B (KWWD)
09:00PM 36.1294 -76.1733 17° North 495 570 37,000  Level Washington Center
09:06PM 36.9270 -75.8834 17° North 506 582 37,000  Level FlightAware ADS-B (KWWD)
09:06PM 37.0027 -75.8558 16° North 506 582 37,000  Level FlightAware ADS-B (KWWD)
09:07PM 37.0800 -75.8275 16° North 500 575 37,000  Level FlightAware ADS-B (KWWD)
09:07PM 37.1488 -75.8023 16° North 500 575 37,000  Level FlightAware ADS-B (KWWD)
09:08PM 37.2397 -75.7687 16° North 501 577 37,000  Level FlightAware ADS-B (KWWD)
09:08PM 37.3102 -75.7426 16° North 502 578 37,000  Level FlightAware ADS-B (KWWD)
09:09PM 37.3990 -75.7096 16° North 502 578 37,000  Level FlightAware ADS-B (KWWD)
09:10PM 37.4684 -75.6839 16° North 501 577 37,000  Level FlightAware ADS-B (KWWD)
09:10PM 37.5566 -75.6511 16° North 502 578 37,000  Level FlightAware ADS-B (KWWD)
09:11PM 37.6274 -75.6248 16° North 501 577 37,000  Level FlightAware ADS-B (KWWD)
09:11PM 37.6950 -75.5994 17° North 504 580 37,000  Level FlightAware ADS-B (KWWD)
09:12PM 37.7843 -75.5660 16° North 486 559 37,000  Level FlightAware ADS-B (KWWD)
09:13PM 37.8498 -75.5416 16° North 484 557 37,000  Level FlightAware ADS-B (KWWD)
09:13PM 37.9344 -75.5095 17° North 495 570 37,000  Level FlightAware ADS-B (KWWD)
09:14PM 38.0203 -75.4639 23° Northeast 504 580 37,000  Level FlightAware ADS-B (KWWD)
09:14PM 38.0809 -75.4222 28° Northeast 509 586 37,000  Level FlightAware ADS-B (KWWD)
09:15PM 38.1800 -75.3329 35° Northeast 518 596 37,000  Level FlightAware ADS-B (KWWD)
09:15PM 38.1929 -75.3191 40° Northeast 518 596 37,000  Level FlightAware ADS-B (KSBY)
09:16PM 38.2736 -75.2362 39° Northeast 520 598 37,000  Level FlightAware ADS-B (KWWD)
09:17PM 38.3285 -75.1792 39° Northeast 521 600 37,000  Level FlightAware ADS-B (KWWD)
09:17PM 38.3840 -75.1209 39° Northeast 522 601 37,000  Level FlightAware ADS-B (KWWD)
09:18PM 38.4395 -75.0624 40° Northeast 523 602 37,000  Level FlightAware ADS-B (KWWD)
09:18PM 38.4941 -75.0047 40° Northeast 523 602 37,000  Level FlightAware ADS-B (KWWD)
09:19PM 38.5527 -74.9427 40° Northeast 523 602 37,000  Level FlightAware ADS-B (KWWD)
09:19PM 38.6215 -74.8697 40° Northeast 525 604 37,000  Level FlightAware ADS-B (KWWD)
09:20PM 38.7383 -74.7452 40° Northeast 527 606 37,000  Level FlightAware ADS-B (KWWD)
09:21PM 38.8059 -74.6731 40° Northeast 529 609 37,000  Level FlightAware ADS-B (KWWD)
09:22PM 38.9140 -74.5573 40° Northeast 526 605 37,000  Level FlightAware ADS-B (KWWD)
09:22PM 38.9844 -74.4815 40° Northeast 527 606 37,000  Level FlightAware ADS-B (KWWD)
09:23PM 39.0412 -74.4204 40° Northeast 527 606 37,000  Level FlightAware ADS-B (KWWD)
09:23PM 39.0996 -74.3574 40° Northeast 527 606 37,000  Level FlightAware ADS-B (KWWD)
09:24PM 39.1728 -74.2781 40° Northeast 527 606 37,000  Level FlightAware ADS-B (KWWD)
09:25PM 39.2303 -74.2156 40° Northeast 528 608 37,000  Level FlightAware ADS-B (KWWD)
09:25PM 39.2863 -74.1546 40° Northeast 530 610 37,000  Level FlightAware ADS-B (KWWD)
09:26PM 39.3468 -74.0888 40° Northeast 529 609 37,000  Level FlightAware ADS-B (KWWD)
09:26PM 39.4016 -74.0289 40° Northeast 530 610 37,000  Level FlightAware ADS-B (KWWD)
09:27PM 39.4569 -73.9681 40° Northeast 530 610 37,000  Level FlightAware ADS-B (KWWD)
09:27PM 39.5164 -73.9027 40° Northeast 531 611 37,000  Level FlightAware ADS-B (KWWD)
09:28PM 39.5725 -73.8409 40° Northeast 531 611 37,000  Level FlightAware ADS-B (KWWD)
09:28PM 39.6295 -73.7782 40° Northeast 532 612 37,000  Level FlightAware ADS-B (KWWD)
09:29PM 39.6852 -73.7165 40° Northeast 533 613 37,000  Level FlightAware ADS-B (KWWD)
09:29PM 39.7434 -73.6521 40° Northeast 534 615 37,000  Level FlightAware ADS-B (KWWD)
09:30PM 39.8012 -73.5878 40° Northeast 534 615 37,000  Level FlightAware ADS-B (KWWD)
09:30PM 39.8587 -73.5238 41° Northeast 536 617 37,000  Level FlightAware ADS-B (KWWD)
09:31PM 39.9148 -73.4612 41° Northeast 538 619 37,000  Level FlightAware ADS-B (KWWD)
09:31PM 39.9897 -73.3773 41° Northeast 537 618 37,000  Level FlightAware ADS-B (KWWD)
09:31PM 39.9991 -73.3673 39° Northeast 543 625 37,000  Level FlightAware ADS-B (KSNC)
09:32PM 40.0529 -73.3228 32° Northeast 531 611 37,000  Level FlightAware ADS-B (KWWD)
09:32PM 40.1185 -73.2777 28° Northeast 529 609 37,000  Level FlightAware ADS-B (KWWD)
09:33PM 40.1854 -73.2349 26° Northeast 519 597 37,000  Level FlightAware ADS-B (KWWD)
09:33PM 40.2060 -73.2223 25° Northeast 520 598 37,000  Level FlightAware ADS-B (KWWD)
09:33PM 40.2544 -73.1924 25° Northeast 527 606 37,000  Level FlightAware ADS-B (KSNC)
09:34PM 40.3366 -73.1397 26° Northeast 520 598 37,000  Level FlightAware ADS-B (KWWD)
09:34PM 40.4029 -73.0964 26° Northeast 519 597 37,000  Level FlightAware ADS-B (KWWD)
09:35PM 40.4690 -73.0533 26° Northeast 520 598 37,000  Level FlightAware ADS-B (KWWD)
09:35PM 40.5345 -73.0103 26° Northeast 521 600 37,000  Level FlightAware ADS-B (KWWD)
09:36PM 40.6077 -72.9623 26° Northeast 529 609 37,000  Level FlightAware ADS-B (KSNC)
09:37PM 40.6863 -72.9105 27° Northeast 523 602 37,000  Level FlightAware ADS-B (KWWD)
09:37PM 40.7685 -72.8561 27° Northeast 530 610 37,000  Level FlightAware ADS-B (KSNC)
09:38PM 40.8417 -72.8076 27° Northeast 522 601 37,000  Level FlightAware ADS-B (KWWD)
09:38PM 40.9149 -72.7590 27° Northeast 528 608 37,000  Level FlightAware ADS-B (KSNC)
09:39PM 40.9836 -72.7133 27° Northeast 526 605 37,000  Level FlightAware ADS-B (KWWD)
09:39PM 41.0502 -72.6688 27° Northeast 525 604 37,000  Level FlightAware ADS-B (KSNC)
09:40PM 41.0973 -72.6373 27° Northeast 523 602 37,000  Level FlightAware ADS-B (KSNC)
09:40PM 41.1842 -72.5792 27° Northeast 520 598 37,000  Level FlightAware ADS-B (KSNC)
09:41PM 41.2645 -72.5252 27° Northeast 517 595 37,000  Level FlightAware ADS-B (KSNC)
09:42PM 41.3318 -72.4799 27° Northeast 516 594 37,000  Level FlightAware ADS-B (KSNC)
09:42PM 41.4295 -72.4138 27° Northeast 514 592 37,000  Level FlightAware ADS-B (KSNC)
09:43PM 41.5224 -72.3509 27° Northeast 513 590 37,000  Level FlightAware ADS-B (YSCB / CBR)
09:44PM 41.6095 -72.2918 27° Northeast 513 590 37,000  Level FlightAware ADS-B (KSNC)
09:44PM 41.6732 -72.2484 27° Northeast 516 594 37,000  Level FlightAware ADS-B (KSNC)
09:45PM 41.7408 -72.2021 27° Northeast 518 596 37,000  Level FlightAware ADS-B (KSNC)
09:45PM 41.8023 -72.1601 27° Northeast 520 598 37,000  Level FlightAware ADS-B (KSNC)
09:46PM 41.8709 -72.1129 27° Northeast 522 601 37,000  Level FlightAware ADS-B (YSCB / CBR)
09:46PM 41.9383 -72.0665 27° Northeast 522 601 37,000  Level FlightAware ADS-B (KSNC)
09:47PM 42.0035 -72.0214 27° Northeast 524 603 37,000  Level FlightAware ADS-B (KSNC)
09:47PM 42.0712 -71.9746 27° Northeast 526 605 37,000  Level FlightAware ADS-B
09:48PM 42.1295 -71.9344 27° Northeast 527 606 37,000  Level FlightAware ADS-B (YSCB / CBR)
09:48PM 42.2031 -71.8834 27° Northeast 529 609 37,000  Level FlightAware ADS-B (YSCB / CBR)
09:49PM 42.2845 -71.8265 27° Northeast 529 609 37,000  Level FlightAware ADS-B (KSNC)
09:49PM 42.3127 -71.8068 27° Northeast 529 609 37,000  Level FlightAware ADS-B (KBOS)
09:50PM 42.3817 -71.7585 27° Northeast 528 608 37,000  Level FlightAware ADS-B (KSNC)
09:50PM 42.4604 -71.7034 27° Northeast 529 609 37,000  Level FlightAware ADS-B
09:51PM 42.5266 -71.6569 27° Northeast 529 609 37,000  Level FlightAware ADS-B
09:51PM 42.5913 -71.6113 27° Northeast 530 610 37,000  Level FlightAware ADS-B
09:52PM 42.6572 -71.5648 27° Northeast 530 610 37,000  Level FlightAware ADS-B
09:52PM 42.7358 -71.5090 27° Northeast 529 609 37,000  Level FlightAware ADS-B (KBOS)
09:53PM 42.8033 -71.4611 28° Northeast 530 610 37,000  Level FlightAware ADS-B (KBOS)
09:53PM 42.8703 -71.4136 27° Northeast 528 608 37,000  Level FlightAware ADS-B (KBOS)
09:54PM 42.9379 -71.3652 28° Northeast 527 606 37,000  Level FlightAware ADS-B (KBOS)
09:54PM 43.0005 -71.3205 28° Northeast 527 606 37,000  Level FlightAware ADS-B (KBOS)
09:55PM 43.0681 -71.2721 28° Northeast 528 608 37,000  Level FlightAware ADS-B (KBOS)
09:55PM 43.1327 -71.2256 28° Northeast 529 609 37,000  Level FlightAware ADS-B (YSCB / CBR)
09:56PM 43.1987 -71.1781 28° Northeast 529 609 37,000  Level FlightAware ADS-B (YSCB / CBR)
09:56PM 43.2622 -71.1323 28° Northeast 532 612 37,000  Level FlightAware ADS-B
09:57PM 43.3323 -71.0815 28° Northeast 533 613 37,000  Level FlightAware ADS-B (YSCB / CBR)
09:58PM 43.4118 -71.0237 28° Northeast 534 615 37,000  Level FlightAware ADS-B (YSCB / CBR)
09:58PM 43.4210 -71.0170 28° Northeast 535 616 37,000  Level FlightAware ADS-B
09:58PM 43.4729 -70.9792 28° Northeast 536 617 37,000  Level FlightAware ADS-B (YSCB / CBR)
09:58PM 43.4950 -70.9630 28° Northeast 536 617 37,000  Level FlightAware ADS-B
09:59PM 43.5493 -70.9234 28° Northeast 536 617 37,000  Level FlightAware ADS-B (KBOS)
09:59PM 43.5710 -70.9080 27° Northeast 536 617 37,000  Level FlightAware ADS-B
09:59PM 43.6295 -70.8648 28° Northeast 533 613 37,000  Level FlightAware ADS-B (KBOS)
09:59PM 43.6470 -70.8520 28° Northeast 535 616 37,000  Level FlightAware ADS-B
09:59PM 43.6550 -70.8461 28° Northeast 527 606 37,000  Level FlightAware ADS-B
10:00PM 43.7211 -70.7975 28° Northeast 528 608 37,000  Level FlightAware ADS-B
10:00PM 43.7649 -70.7653 28° Northeast 528 608 37,000  Level FlightAware ADS-B
10:01PM 43.8362 -70.7126 28° Northeast 532 612 37,000  Level FlightAware ADS-B (KBOS)
10:01PM 43.9177 -70.6523 28° Northeast 532 612 37,000  Level FlightAware ADS-B
10:02PM 43.9883 -70.5999 28° Northeast 530 610 37,000  Level FlightAware ADS-B (KBOS)
10:03PM 44.0627 -70.5445 28° Northeast 528 608 37,000  Level FlightAware ADS-B
10:03PM 44.1288 -70.4952 28° Northeast 528 608 37,000  Level FlightAware ADS-B (KBOS)
10:04PM 44.2264 -70.4221 28° Northeast 528 608 37,000  Level FlightAware ADS-B (KBOS)
10:04PM 44.2919 -70.3729 28° Northeast 528 608 37,000  Level FlightAware ADS-B (KBOS)
10:05PM 44.3570 -70.3239 28° Northeast 529 609 37,000  Level FlightAware ADS-B (KBOS)
10:06PM 44.4419 -70.2598 28° Northeast 530 610 37,000  Level FlightAware ADS-B (KBOS)
10:06PM 44.5251 -70.1968 28° Northeast 529 609 37,000  Level FlightAware ADS-B (KBOS)
10:07PM 44.6000 -70.1398 28° Northeast 527 606 37,000  Level FlightAware ADS-B
10:07PM 44.6616 -70.0930 28° Northeast 524 603 37,000  Level FlightAware ADS-B
10:08PM 44.7719 -70.0142 27° Northeast 523 602 37,000  Level FlightAware ADS-B
10:09PM 44.8466 -69.9615 27° Northeast 524 603 37,000  Level FlightAware ADS-B
10:09PM 44.9060 -69.9192 27° Northeast 523 602 37,000  Level FlightAware ADS-B
10:10PM 44.9806 -69.8657 27° Northeast 526 605 37,000  Level FlightAware ADS-B
10:10PM 45.0659 -69.8045 27° Northeast 529 609 37,000  Level FlightAware ADS-B
10:11PM 45.1354 -69.7544 27° Northeast 528 608 37,000  Level FlightAware ADS-B (KBGR)
10:12PM 45.2217 -69.6922 27° Northeast 525 604 37,000  Level FlightAware ADS-B
10:12PM 45.3006 -69.6350 27° Northeast 527 606 37,000  Level FlightAware ADS-B
10:13PM 45.3646 -69.5886 27° Northeast 529 609 37,000  Level FlightAware ADS-B
10:13PM 45.4394 -69.5340 27° Northeast 529 609 37,000  Level FlightAware ADS-B
10:14PM 45.5130 -69.4801 27° Northeast 529 609 37,000  Level FlightAware ADS-B
10:15PM 45.6088 -69.4098 27° Northeast 527 606 37,000  Level FlightAware ADS-B
10:15PM 45.6975 -69.3446 27° Northeast 522 601 37,000  Level FlightAware ADS-B
10:16PM 45.7854 -69.2796 27° Northeast 520 598 37,000  Level FlightAware ADS-B
10:17PM 45.8715 -69.2159 27° Northeast 526 605 37,000  Level FlightAware ADS-B
10:17PM 45.9512 -69.1565 27° Northeast 528 608 37,000  Level FlightAware ADS-B
10:18PM 46.0235 -69.1026 27° Northeast 526 605 37,000  Level FlightAware ADS-B
10:18PM 46.0957 -69.0485 27° Northeast 521 600 37,000  Level FlightAware ADS-B
10:19PM 46.1618 -68.9990 27° Northeast 521 600 37,000  Level FlightAware ADS-B
10:19PM 46.2269 -68.9499 27° Northeast 522 601 37,000  Level FlightAware ADS-B
10:20PM 46.2840 -68.9068 28° Northeast 523 602 37,000  Level FlightAware ADS-B
10:21PM 46.3960 -68.8219 28° Northeast 522 601 37,000  Level FlightAware ADS-B
10:21PM 46.4740 -68.7627 28° Northeast 524 603 37,000  Level FlightAware ADS-B
10:22PM 46.5805 -68.6814 28° Northeast 524 603 37,000  Level FlightAware ADS-B
10:24PM 46.8301 -68.4894 28° Northeast 521 600 37,000  Level FlightAware ADS-B
10:25PM 46.9338 -68.4091 28° Northeast 520 598 37,000  Level FlightAware ADS-B
10:26PM 47.0222 -68.3403 28° Northeast 518 596 37,000  Level FlightAware ADS-B
10:26PM 47.0920 -68.2857 28° Northeast 519 597 37,000  Level FlightAware ADS-B
10:27PM 47.1613 -68.2316 28° Northeast 517 595 37,000  Level FlightAware ADS-B
10:27PM 47.2556 -68.1575 28° Northeast 515 593 37,000  Level FlightAware ADS-B
10:28PM 47.3386 -68.0920 28° Northeast 515 593 37,000  Level FlightAware ADS-B
10:29PM 47.4220 -68.0259 28° Northeast 512 589 37,000  Level FlightAware ADS-B
10:29PM 47.5107 -67.9554 28° Northeast 514 592 37,000  Level FlightAware ADS-B
10:30PM 47.5705 -67.9078 28° Northeast 515 593 37,000  Level FlightAware ADS-B
10:31PM 47.6538 -67.8411 28° Northeast 514 592 37,000  Level FlightAware ADS-B
10:31PM 47.7166 -67.7907 28° Northeast 516 594 37,000  Level FlightAware ADS-B
10:32PM 47.7805 -67.7392 28° Northeast 516 594 37,000  Level FlightAware ADS-B
10:32PM 47.8547 -67.6795 28° Northeast 516 594 37,000  Level FlightAware ADS-B
10:33PM 47.9394 -67.6109 28° Northeast 515 593 37,000  Level FlightAware ADS-B
10:34PM 48.0271 -67.5396 29° Northeast 515 593 37,000  Level FlightAware ADS-B
10:34PM 48.0898 -67.4884 29° Northeast 514 592 37,000  Level FlightAware ADS-B
10:35PM 48.1534 -67.4365 29° Northeast 516 594 37,000  Level FlightAware ADS-B
10:35PM 48.2260 -67.3769 29° Northeast 516 594 37,000  Level FlightAware ADS-B
10:36PM 48.3167 -67.3000 29° Northeast 520 598 37,000  Level Gander Center
10:37PM 48.4500 -67.1833 30° Northeast 510 587 37,000  Level Gander Center
10:38PM 48.5833 -67.0667 30° Northeast 510 587 37,000  Level Gander Center
10:39PM 48.6833 -66.9833 29° Northeast 510 587 37,000  Level Gander Center
10:40PM 48.8333 -66.8667 27° Northeast 510 587 37,000  Level Gander Center
10:41PM 48.9500 -66.7500 33° Northeast 510 587 37,000  Level Gander Center
10:42PM 49.0667 -66.6667 25° Northeast 510 587 37,000  Level Gander Center
10:43PM 49.2000 -66.5500 30° Northeast 510 587 37,000  Level Gander Center
10:44PM 49.3167 -66.4333 33° Northeast 520 598 37,000  Level Gander Center
10:45PM 49.4500 -66.3333 26° Northeast 520 598 37,000  Level Gander Center
10:46PM 49.5833 -66.2333 26° Northeast 520 598 37,000  Level Gander Center
10:47PM 49.7000 -66.1167 33° Northeast 520 598 37,000  Level Gander Center
10:48PM 49.8167 -66.0000 33° Northeast 520 598 37,000  Level Gander Center
10:49PM 49.9667 -65.8833 27° Northeast 520 598 37,000  Level Gander Center
10:50PM 50.0667 -65.7833 33° Northeast 520 598 37,000  Level Gander Center
10:51PM 50.2000 -65.6667 29° Northeast 520 598 37,000  Level Gander Center
10:52PM 50.3167 -65.5500 33° Northeast 520 598 37,000  Level Gander Center
10:53PM 50.4500 -65.4667 22° Northeast 520 598 37,000  Level Gander Center
10:54PM 50.5667 -65.3333 36° Northeast 520 598 37,000  Level Gander Center
10:55PM 50.6833 -65.2167 32° Northeast 520 598 37,000  Level Gander Center
10:56PM 50.8333 -65.1000 26° Northeast 520 598 37,000  Level Gander Center
10:57PM 50.9500 -64.9667 36° Northeast 520 598 37,000  Level Gander Center
10:58PM 51.0667 -64.8500 32° Northeast 520 598 37,000  Level Gander Center
10:59PM 51.1833 -64.7500 28° Northeast 520 598 37,000  Level Gander Center
11:00PM 51.3333 -64.6333 26° Northeast 520 598 37,000  Level Gander Center
11:01PM 51.4500 -64.5000 35° Northeast 520 598 37,000  Level Gander Center
11:02PM 51.5667 -64.4000 28° Northeast 520 598 37,000  Level Gander Center
11:03PM 51.6833 -64.2833 32° Northeast 520 598 37,000  Level Gander Center
11:04PM 51.8000 -64.1500 35° Northeast 520 598 37,000  Level Gander Center
11:05PM 51.9500 -64.0167 29° Northeast 520 598 37,000  Level Gander Center
11:06PM 52.0667 -63.9167 28° Northeast 520 598 37,000  Level Gander Center
11:07PM 52.1833 -63.7833 35° Northeast 520 598 37,000  Level Gander Center
11:08PM 52.3000 -63.6667 31° Northeast 520 598 37,000  Level Gander Center
11:09PM 52.4167 -63.5333 35° Northeast 520 598 37,000  Level Gander Center
11:10PM 52.5333 -63.4333 28° Northeast 520 598 37,000  Level Gander Center
11:11PM 52.6667 -63.2667 37° Northeast 510 587 37,000  Level Gander Center
11:12PM 52.7833 -63.1333 35° Northeast 510 587 37,000  Level Gander Center
11:13PM 52.9000 -62.9667 41° Northeast 510 587 37,000  Level Gander Center
11:14PM 53.0000 -62.8333 39° Northeast 510 587 37,000  Level Gander Center
11:15PM 53.1000 -62.7000 39° Northeast 510 587 37,000  Level Gander Center
11:16PM 53.2167 -62.5333 41° Northeast 510 587 37,000  Level Gander Center
11:17PM 53.3333 -62.4000 34° Northeast 510 587 37,000  Level Gander Center
11:18PM 53.4667 -62.2333 37° Northeast 510 587 37,000  Level Gander Center
11:19PM 53.5667 -62.1000 38° Northeast 510 587 37,000  Level Gander Center
11:20PM 53.6667 -61.9667 38° Northeast 510 587 37,000  Level Gander Center
11:21PM 53.7833 -61.7833 43° Northeast 510 587 37,000  Level Gander Center
11:22PM 53.9000 -61.6500 34° Northeast 520 598 37,000  Level Gander Center
11:23PM 54.0167 -61.4833 40° Northeast 520 598 37,000  Level Gander Center
11:24PM 54.1167 -61.3333 41° Northeast 520 598 37,000  Level Gander Center
11:25PM 54.2333 -61.1667 40° Northeast 520 598 37,000  Level Gander Center
11:26PM 54.3500 -61.0167 37° Northeast 530 610 37,000 -60 Level Gander Center
11:27PM 54.4500 -60.8500 44° Northeast 520 598 36,900 -300 Descending Gander Center
11:28PM 54.5833 -60.7000 33° Northeast 520 598 36,500 -300 Descending Gander Center
11:29PM 54.6833 -60.5667 38° Northeast 510 587 36,300 -300 Descending Gander Center
11:30PM 54.8000 -60.3833 42° Northeast 520 598 36,000 -180 Descending Gander Center
11:31PM 54.9167 -60.2000 42° Northeast 530 610 36,000  Level Gander Center
11:32PM 55.0333 -60.0333 39° Northeast 540 621 36,000  Level Gander Center
11:33PM 55.1500 -59.8833 36° Northeast 540 621 36,000  Level Gander Center
11:34PM 55.2333 -59.7000 51° Northeast 540 621 36,000  Level Gander Center
11:35PM 55.3667 -59.5167 38° Northeast 540 621 36,000  Level Gander Center
11:36PM 55.4667 -59.3667 40° Northeast 550 633 36,000  Level Gander Center
11:37PM 55.6000 -59.1833 38° Northeast 550 633 36,000  Level Gander Center
11:38PM 55.7167 -59.0000 41° Northeast 550 633 36,000  Level Gander Center
11:39PM 55.8333 -58.8167 41° Northeast 550 633 36,000  Level Gander Center
11:40PM 55.9333 -58.6500 43° Northeast 550 633 36,000  Level Gander Center
11:41PM 56.0500 -58.4667 41° Northeast 550 633 36,000  Level Gander Center
11:42PM 56.1667 -58.2833 41° Northeast 540 621 36,000  Level Gander Center
11:43PM 56.2833 -58.1167 38° Northeast 550 633 36,000  Level Gander Center
11:44PM 56.3667 -57.8833 57° Northeast 540 621 36,000  Level Gander Center
11:45PM 56.4500 -57.6833 53° Northeast 540 621 36,000  Level Gander Center
11:46PM 56.5500 -57.4333 54° Northeast 540 621 36,000  Level Gander Center
11:47PM 56.6333 -57.2167 55° Northeast 540 621 36,000  Level Gander Center
11:48PM 56.7167 -57.0167 53° Northeast 550 633 36,000  Level Gander Center
11:49PM 56.8000 -56.8000 55° Northeast 550 633 36,000  Level Gander Center
11:50PM 56.8833 -56.5833 55° Northeast 540 621 36,000  Level Gander Center
11:51PM 56.9500 -56.3167 65° Northeast 550 633 36,000  Level Gander Center
11:52PM 57.0500 -56.1000 50° Northeast 540 621 36,000  Level Gander Center
11:53PM 57.1167 -55.8667 62° Northeast 550 633 36,000  Level Gander Center
11:54PM 57.2167 -55.6167 53° Northeast 550 633 36,000  Level Gander Center
11:55PM 57.2833 -55.4167 58° Northeast 540 621 36,000  Level Gander Center
11:56PM 57.3833 -55.1500 55° Northeast 550 633 36,000  Level Gander Center
11:57PM 57.5000 -54.9167 47° Northeast 550 633 36,000  Level Gander Center
11:59PM 57.6083 -54.5942 58° Northeast  Level FlightAware Approximate
12:06AM 58.1252 -52.9914 58° Northeast  Level FlightAware Approximate
12:07AM 58.1974 -52.7587 59° Northeast  Level FlightAware Approximate
12:08AM 58.2691 -52.5250 60° Northeast  Level FlightAware Approximate
12:09AM 58.3405 -52.2904 60° Northeast  Level FlightAware Approximate
12:10AM 58.4113 -52.0548 60° Northeast  Level FlightAware Approximate
12:11AM 58.4818 -51.8183 60° Northeast  Level FlightAware Approximate
12:12AM 58.5518 -51.5808 60° Northeast  Level FlightAware Approximate
12:13AM 58.6214 -51.3424 61° Northeast  Level FlightAware Approximate
12:14AM 58.6905 -51.1031 61° Northeast  Level FlightAware Approximate
12:15AM 58.7592 -50.8628 61° Northeast  Level FlightAware Approximate
12:16AM 58.8275 -50.6215 61° Northeast  Level FlightAware Approximate
12:17AM 58.8953 -50.3793 61° Northeast  Level FlightAware Approximate
12:18AM 58.9626 -50.1362 62° Northeast  Level FlightAware Approximate
12:19AM 59.0368 -49.9001 54° Northeast  Level FlightAware Approximate
12:20AM 59.1194 -49.6744 54° Northeast  Level FlightAware Approximate
12:21AM 59.2016 -49.4475 55° Northeast  Level FlightAware Approximate
12:22AM 59.2835 -49.2196 55° Northeast  Level FlightAware Approximate
12:23AM 59.3649 -48.9906 55° Northeast  Level FlightAware Approximate
12:24AM 59.4459 -48.7604 55° Northeast  Level FlightAware Approximate
12:25AM 59.5265 -48.5292 55° Northeast  Level FlightAware Approximate
12:26AM 59.6067 -48.2969 56° Northeast  Level FlightAware Approximate
12:27AM 59.6865 -48.0634 56° Northeast  Level FlightAware Approximate
12:28AM 59.7659 -47.8289 56° Northeast  Level FlightAware Approximate
12:29AM 59.8448 -47.5932 56° Northeast  Level FlightAware Approximate
12:30AM 59.9234 -47.3564 56° Northeast  Level FlightAware Approximate
12:31AM 60.0015 -47.1185 57° Northeast  Level FlightAware Approximate
12:32AM 60.0792 -46.8795 57° Northeast  Level FlightAware Approximate
12:33AM 60.1564 -46.6393 57° Northeast  Level FlightAware Approximate
12:34AM 60.2332 -46.3980 57° Northeast  Level FlightAware Approximate
12:35AM 60.3096 -46.1556 57° Northeast  Level FlightAware Approximate
12:36AM 60.3855 -45.9121 58° Northeast  Level FlightAware Approximate
12:37AM 60.4610 -45.6674 58° Northeast  Level FlightAware Approximate
12:38AM 60.5360 -45.4216 58° Northeast  Level FlightAware Approximate
12:39AM 60.6106 -45.1746 58° Northeast  Level FlightAware Approximate
12:40AM 60.6847 -44.9265 59° Northeast  Level FlightAware Approximate
12:41AM 60.7584 -44.6773 59° Northeast  Level FlightAware Approximate
12:42AM 60.8315 -44.4269 59° Northeast  Level FlightAware Approximate
12:43AM 60.9043 -44.1754 59° Northeast  Level FlightAware Approximate
12:44AM 60.9765 -43.9227 59° Northeast  Level FlightAware Approximate
12:45AM 61.0483 -43.6689 60° Northeast  Level FlightAware Approximate
12:46AM 61.1196 -43.4139 60° Northeast  Level FlightAware Approximate
12:47AM 61.1904 -43.1578 60° Northeast  Level FlightAware Approximate
12:48AM 61.2607 -42.9005 60° Northeast  Level FlightAware Approximate
12:49AM 61.3306 -42.6421 61° Northeast  Level FlightAware Approximate
12:50AM 61.3999 -42.3825 61° Northeast  Level FlightAware Approximate
12:51AM 61.4688 -42.1218 61° Northeast  Level FlightAware Approximate
12:52AM 61.5371 -41.8600 61° Northeast  Level FlightAware Approximate
12:53AM 61.6050 -41.5969 61° Northeast  Level FlightAware Approximate
12:54AM 61.6723 -41.3328 62° Northeast  Level FlightAware Approximate
12:55AM 61.7392 -41.0674 62° Northeast  Level FlightAware Approximate
12:56AM 61.8055 -40.8010 62° Northeast  Level FlightAware Approximate
12:57AM 61.8713 -40.5333 62° Northeast  Level FlightAware Approximate
12:58AM 61.9365 -40.2646 63° Northeast  Level FlightAware Approximate
12:59AM 62.0013 -39.9947 62° Northeast  Level FlightAware Approximate
01:00AM 62.0680 -39.7263 62° Northeast  Level FlightAware Approximate
01:01AM 62.1341 -39.4567 62° Northeast  Level FlightAware Approximate
01:02AM 62.1997 -39.1860 62° Northeast  Level FlightAware Approximate
01:03AM 62.2648 -38.9141 63° Northeast  Level FlightAware Approximate
01:04AM 62.3293 -38.6410 63° Northeast  Level FlightAware Approximate
01:05AM 62.3933 -38.3667 63° Northeast  Level FlightAware Approximate
01:06AM 62.4567 -38.0913 63° Northeast  Level FlightAware Approximate
01:07AM 62.5197 -37.8147 64° Northeast  Level FlightAware Approximate
01:08AM 62.5820 -37.5369 64° Northeast  Level FlightAware Approximate
01:09AM 62.6438 -37.2580 64° Northeast  Level FlightAware Approximate
01:10AM 62.7051 -36.9779 64° Northeast  Level FlightAware Approximate
01:11AM 62.7658 -36.6967 65° Northeast  Level FlightAware Approximate
01:12AM 62.8259 -36.4143 65° Northeast  Level FlightAware Approximate
01:13AM 62.8858 -36.1311 65° Northeast  Level FlightAware Approximate
01:14AM 62.9453 -35.8469 65° Northeast  Level FlightAware Approximate
01:15AM 63.0043 -35.5616 65° Northeast  Level FlightAware Approximate
01:16AM 63.0627 -35.2752 66° East  Level FlightAware Approximate
01:17AM 63.1205 -34.9876 66° East  Level FlightAware Approximate
01:18AM 63.1778 -34.6989 66° East  Level FlightAware Approximate
01:19AM 63.2344 -34.4090 66° East  Level FlightAware Approximate
01:20AM 63.2905 -34.1180 67° East  Level FlightAware Approximate
01:21AM 63.3460 -33.8259 67° East  Level FlightAware Approximate
01:22AM 63.4008 -33.5326 67° East  Level FlightAware Approximate
01:23AM 63.4551 -33.2383 67° East  Level FlightAware Approximate
01:24AM 63.5087 -32.9428 68° East  Level FlightAware Approximate
01:25AM 63.5618 -32.6462 68° East  Level FlightAware Approximate
01:26AM 63.6142 -32.3485 68° East  Level FlightAware Approximate
01:27AM 63.6660 -32.0497 69° East  Level FlightAware Approximate
01:28AM 63.7172 -31.7499 69° East  Level FlightAware Approximate
01:29AM 63.7677 -31.4489 69° East  Level FlightAware Approximate
01:30AM 63.8177 -31.1469 69° East  Level FlightAware Approximate
01:31AM 63.8670 -30.8438 70° East  Level FlightAware Approximate
01:32AM 63.9156 -30.5397 70° East  Level FlightAware Approximate
01:33AM 63.9636 -30.2345 70° East  Level FlightAware Approximate
01:34AM 64.0100 -29.9275 72° East  Level FlightAware Approximate
01:35AM 64.0525 -29.6171 73° East  Level FlightAware Approximate
01:36AM 64.0943 -29.3057 73° East  Level FlightAware Approximate
01:37AM 64.1355 -28.9934 73° East  Level FlightAware Approximate
01:38AM 64.1760 -28.6802 73° East  Level FlightAware Approximate
01:39AM 64.2158 -28.3661 74° East  Level FlightAware Approximate
01:40AM 64.2549 -28.0511 74° East  Level FlightAware Approximate
01:41AM 64.2934 -27.7351 74° East  Level FlightAware Approximate
01:42AM 64.3311 -27.4184 74° East  Level FlightAware Approximate
01:43AM 64.3682 -27.1007 75° East  Level FlightAware Approximate
01:44AM 64.4046 -26.7822 75° East  Level FlightAware Approximate
01:45AM 64.4403 -26.4629 75° East  Level FlightAware Approximate
01:46AM 64.4753 -26.1427 76° East  Level FlightAware Approximate
01:47AM 64.5096 -25.8217 76° East  Level FlightAware Approximate
01:48AM 64.5432 -25.4999 76° East  Level FlightAware Approximate
01:49AM 64.5761 -25.1774 76° East  Level FlightAware Approximate
01:50AM 64.6083 -24.8540 77° East  Level FlightAware Approximate
01:51AM 64.6398 -24.5300 77° East  Level FlightAware Approximate
01:52AM 64.6706 -24.2051 77° East  Level FlightAware Approximate
01:53AM 64.7007 -23.8796 78° East  Level FlightAware Approximate
01:54AM 64.7300 -23.5533 78° East  Level FlightAware Approximate
01:55AM 64.7587 -23.2263 78° East  Level FlightAware Approximate
01:56AM 64.7866 -22.8986 79° East  Level FlightAware Approximate
01:57AM 64.8138 -22.5703 79° East  Level FlightAware Approximate
01:58AM 64.8402 -22.2413 79° East  Level FlightAware Approximate
01:59AM 64.8660 -21.9117 79° East  Level FlightAware Approximate
02:00AM 64.8910 -21.5814 80° East  Level FlightAware Approximate
02:01AM 64.9152 -21.2506 80° East  Level FlightAware Approximate
02:02AM 64.9388 -20.9191 80° East  Level FlightAware Approximate
02:03AM 64.9616 -20.5871 81° East  Level FlightAware Approximate
02:04AM 64.9836 -20.2545 81° East  Level FlightAware Approximate
02:05AM 65.0026 -19.9208 85° East  Level FlightAware Approximate
02:06AM 65.0133 -19.5846 86° East  Level FlightAware Approximate
02:07AM 65.0233 -19.2482 86° East  Level FlightAware Approximate
02:08AM 65.0325 -18.9116 86° East  Level FlightAware Approximate
02:09AM 65.0409 -18.5747 86° East  Level FlightAware Approximate
02:10AM 65.0486 -18.2377 87° East  Level FlightAware Approximate
02:11AM 65.0555 -17.9004 87° East  Level FlightAware Approximate
02:12AM 65.0617 -17.5630 87° East  Level FlightAware Approximate
02:13AM 65.0670 -17.2255 88° East  Level FlightAware Approximate
02:14AM 65.0717 -16.8878 88° East  Level FlightAware Approximate
02:15AM 65.0755 -16.5500 88° East  Level FlightAware Approximate
02:16AM 65.0787 -16.2121 89° East  Level FlightAware Approximate
02:17AM 65.0810 -15.8742 89° East  Level FlightAware Approximate
02:18AM 65.0826 -15.5361 89° East  Level FlightAware Approximate
02:19AM 65.0834 -15.1981 90° East  Level FlightAware Approximate
02:20AM 65.0835 -14.8601 90° East  Level FlightAware Approximate
02:21AM 65.0828 -14.5220 90° East  Level FlightAware Approximate
02:22AM 65.0813 -14.1840 90° East  Level FlightAware Approximate
02:23AM 65.0791 -13.8461 91° East  Level FlightAware Approximate
02:24AM 65.0761 -13.5082 91° East  Level FlightAware Approximate
02:25AM 65.0724 -13.1704 91° East  Level FlightAware Approximate
02:26AM 65.0679 -12.8327 92° East  Level FlightAware Approximate
02:27AM 65.0626 -12.4951 92° East  Level FlightAware Approximate
02:28AM 65.0566 -12.1576 92° East  Level FlightAware Approximate
02:29AM 65.0498 -11.8203 93° East  Level FlightAware Approximate
02:30AM 65.0423 -11.4832 93° East  Level FlightAware Approximate
02:31AM 65.0340 -11.1464 93° East  Level FlightAware Approximate
02:32AM 65.0249 -10.8097 93° East  Level FlightAware Approximate
02:33AM 65.0151 -10.4732 94° East  Level FlightAware Approximate
02:34AM 65.0045 -10.1371 94° East  Level FlightAware Approximate
02:35AM 65.0065 -9.8011 85° East  Level FlightAware Approximate
02:36AM 65.0170 -9.4648 86° East  Level FlightAware Approximate
02:37AM 65.0266 -9.1284 86° East  Level FlightAware Approximate
02:38AM 65.0356 -8.7916 86° East  Level FlightAware Approximate
02:39AM 65.0437 -8.4547 87° East  Level FlightAware Approximate
02:40AM 65.0511 -8.1176 87° East  Level FlightAware Approximate
02:41AM 65.0578 -7.7803 87° East  Level FlightAware Approximate
02:42AM 65.0637 -7.4428 87° East  Level FlightAware Approximate
02:43AM 65.0688 -7.1052 88° East  Level FlightAware Approximate
02:44AM 65.0731 -6.7674 88° East  Level FlightAware Approximate
02:45AM 65.0767 -6.4296 88° East  Level FlightAware Approximate
02:46AM 65.0796 -6.0917 89° East  Level FlightAware Approximate
02:47AM 65.0817 -5.7537 89° East  Level FlightAware Approximate
02:48AM 65.0830 -5.4157 89° East  Level FlightAware Approximate
02:49AM 65.0835 -5.0777 90° East  Level FlightAware Approximate
02:50AM 65.0833 -4.7396 90° East  Level FlightAware Approximate
02:51AM 65.0824 -4.4016 90° East  Level FlightAware Approximate
02:52AM 65.0806 -4.0636 91° East  Level FlightAware Approximate
02:53AM 65.0781 -3.7257 91° East  Level FlightAware Approximate
02:54AM 65.0749 -3.3878 91° East  Level FlightAware Approximate
02:55AM 65.0709 -3.0501 91° East  Level FlightAware Approximate
02:56AM 65.0661 -2.7124 92° East  Level FlightAware Approximate
02:57AM 65.0606 -2.3749 92° East  Level FlightAware Approximate
02:58AM 65.0543 -2.0375 92° East  Level FlightAware Approximate
02:59AM 65.0472 -1.7003 93° East  Level FlightAware Approximate
03:00AM 65.0394 -1.3632 93° East  Level FlightAware Approximate
03:01AM 65.0308 -1.0264 93° East  Level FlightAware Approximate
03:02AM 65.0215 -0.6898 94° East  Level FlightAware Approximate
03:03AM 65.0114 -0.3535 94° East  Level FlightAware Approximate
03:04AM 65.0006 -0.0174 94° East  Level FlightAware Approximate
03:05AM 64.9795 0.3157 99° East  Level FlightAware Approximate
03:06AM 64.9571 0.6481 99° East  Level FlightAware Approximate
03:07AM 64.9340 0.9800 99° East  Level FlightAware Approximate
03:08AM 64.9102 1.3112 99° East  Level FlightAware Approximate
03:09AM 64.8856 1.6419 100° East  Level FlightAware Approximate
03:10AM 64.8603 1.9720 100° East  Level FlightAware Approximate
03:11AM 64.8343 2.3014 100° East  Level FlightAware Approximate
03:12AM 64.8075 2.6302 101° East  Level FlightAware Approximate
03:13AM 64.7800 2.9583 101° East  Level FlightAware Approximate
03:14AM 64.7518 3.2857 101° East  Level FlightAware Approximate
03:15AM 64.7229 3.6125 102° East  Level FlightAware Approximate
03:16AM 64.6932 3.9385 102° East  Level FlightAware Approximate
03:17AM 64.6628 4.2639 102° East  Level FlightAware Approximate
03:18AM 64.6318 4.5884 102° East  Level FlightAware Approximate
03:19AM 64.6000 4.9123 103° East  Level FlightAware Approximate
03:20AM 64.5675 5.2354 103° East  Level FlightAware Approximate
03:21AM 64.5343 5.5576 103° East  Level FlightAware Approximate
03:22AM 64.5004 5.8791 104° East  Level FlightAware Approximate
03:23AM 64.4658 6.1998 104° East  Level FlightAware Approximate
03:24AM 64.4305 6.5197 104° East  Level FlightAware Approximate
03:25AM 64.3945 6.8388 104° East  Level FlightAware Approximate
03:26AM 64.3578 7.1570 105° East  Level FlightAware Approximate
03:27AM 64.3204 7.4743 105° East  Level FlightAware Approximate
03:28AM 64.2824 7.7908 105° East  Level FlightAware Approximate
03:29AM 64.2436 8.1064 106° East  Level FlightAware Approximate
03:30AM 64.2042 8.4211 106° East  Level FlightAware Approximate
03:31AM 64.1641 8.7349 106° East  Level FlightAware Approximate
03:32AM 64.1234 9.0478 106° East  Level FlightAware Approximate
03:33AM 64.0819 9.3598 107° East  Level FlightAware Approximate
03:34AM 64.0398 9.6708 107° East  Level FlightAware Approximate
03:35AM 63.9971 9.9809 107° East  Level FlightAware Approximate
03:36AM 63.9537 10.2901 108° East  Level FlightAware Approximate
03:37AM 63.9096 10.5982 108° East  Level FlightAware Approximate
03:38AM 63.8649 10.9054 108° East  Level FlightAware Approximate
03:39AM 63.8195 11.2117 108° East  Level FlightAware Approximate
03:40AM 63.7735 11.5169 109° East  Level FlightAware Approximate
03:41AM 63.7268 11.8211 109° East  Level FlightAware Approximate
03:42AM 63.6795 12.1243 109° East  Level FlightAware Approximate
03:43AM 63.6316 12.4265 110° East  Level FlightAware Approximate
03:44AM 63.5830 12.7277 110° East  Level FlightAware Approximate
03:45AM 63.5338 13.0278 110° East  Level FlightAware Approximate
03:46AM 63.4840 13.3269 110° East  Level FlightAware Approximate
03:47AM 63.4335 13.6250 111° Southeast  Level FlightAware Approximate
03:48AM 63.3825 13.9220 111° Southeast  Level FlightAware Approximate
03:49AM 63.3308 14.2179 111° Southeast  Level FlightAware Approximate
03:50AM 63.2785 14.5128 111° Southeast  Level FlightAware Approximate
03:51AM 63.2256 14.8066 112° Southeast  Level FlightAware Approximate
03:52AM 63.1721 15.0993 112° Southeast  Level FlightAware Approximate
03:53AM 63.1180 15.3910 112° Southeast  Level FlightAware Approximate
03:54AM 63.0633 15.6815 112° Southeast  Level FlightAware Approximate
03:55AM 63.0080 15.9709 113° Southeast  Level FlightAware Approximate
03:56AM 62.9521 16.2593 113° Southeast  Level FlightAware Approximate
03:57AM 62.8956 16.5465 113° Southeast  Level FlightAware Approximate
03:58AM 62.8386 16.8327 113° Southeast  Level FlightAware Approximate
03:59AM 62.7810 17.1177 114° Southeast  Level FlightAware Approximate
04:00AM 62.7228 17.4016 114° Southeast  Level FlightAware Approximate
04:01AM 62.6640 17.6844 114° Southeast  Level FlightAware Approximate
04:02AM 62.6047 17.9660 114° Southeast  Level FlightAware Approximate
04:03AM 62.5448 18.2465 115° Southeast  Level FlightAware Approximate
04:04AM 62.4843 18.5259 115° Southeast  Level FlightAware Approximate
04:05AM 62.4233 18.8042 115° Southeast  Level FlightAware Approximate
04:06AM 62.3617 19.0813 115° Southeast  Level FlightAware Approximate
04:07AM 62.2996 19.3573 116° Southeast  Level FlightAware Approximate
04:08AM 62.2369 19.6321 116° Southeast  Level FlightAware Approximate
04:09AM 62.1737 19.9058 116° Southeast  Level FlightAware Approximate
04:10AM 62.1100 20.1784 117° Southeast  Level FlightAware Approximate
04:11AM 62.0458 20.4499 117° Southeast  Level FlightAware Approximate
04:12AM 61.9811 20.7202 117° Southeast  Level FlightAware Approximate
04:13AM 61.9159 20.9895 117° Southeast  Level FlightAware Approximate
04:14AM 61.8502 21.2575 117° Southeast  Level FlightAware Approximate
04:15AM 61.7839 21.5244 118° Southeast  Level FlightAware Approximate
04:16AM 61.7171 21.7902 118° Southeast  Level FlightAware Approximate
04:17AM 61.6498 22.0548 118° Southeast  Level FlightAware Approximate
04:18AM 61.5820 22.3182 118° Southeast  Level FlightAware Approximate
04:19AM 61.5137 22.5805 119° Southeast  Level FlightAware Approximate
04:20AM 61.4449 22.8417 119° Southeast  Level FlightAware Approximate
04:21AM 61.3755 23.1016 119° Southeast  Level FlightAware Approximate
04:22AM 61.3057 23.3605 119° Southeast  Level FlightAware Approximate
04:23AM 61.2354 23.6182 119° Southeast  Level FlightAware Approximate
04:24AM 61.1647 23.8747 120° Southeast  Level FlightAware Approximate
04:25AM 61.0934 24.1300 120° Southeast  Level FlightAware Approximate
04:26AM 61.0216 24.3843 120° Southeast  Level FlightAware Approximate
04:27AM 60.9494 24.6373 120° Southeast  Level FlightAware Approximate
04:28AM 60.8767 24.8892 121° Southeast  Level FlightAware Approximate
04:29AM 60.8036 25.1400 121° Southeast  Level FlightAware Approximate
04:30AM 60.7299 25.3896 121° Southeast  Level FlightAware Approximate
04:31AM 60.6558 25.6381 121° Southeast  Level FlightAware Approximate
04:32AM 60.5813 25.8855 121° Southeast  Level FlightAware Approximate
04:33AM 60.5063 26.1316 122° Southeast  Level FlightAware Approximate
04:34AM 60.4309 26.3767 122° Southeast  Level FlightAware Approximate
04:35AM 60.3549 26.6206 122° Southeast  Level FlightAware Approximate
04:36AM 60.2786 26.8634 122° Southeast  Level FlightAware Approximate
04:37AM 60.2018 27.1050 123° Southeast  Level FlightAware Approximate
04:38AM 60.1246 27.3455 123° Southeast  Level FlightAware Approximate
04:39AM 60.0469 27.5849 123° Southeast  Level FlightAware Approximate
04:40AM 59.9688 27.8232 123° Southeast  Level FlightAware Approximate
04:41AM 59.8903 28.0603 123° Southeast  Level FlightAware Approximate
04:42AM 59.8114 28.2963 124° Southeast  Level FlightAware Approximate
04:43AM 59.7320 28.5312 124° Southeast  Level FlightAware Approximate
04:44AM 59.6522 28.7650 124° Southeast  Level FlightAware Approximate
04:45AM 59.5720 28.9977 124° Southeast  Level FlightAware Approximate
04:46AM 59.4915 29.2292 124° Southeast  Level FlightAware Approximate
04:47AM 59.4104 29.4597 125° Southeast  Level FlightAware Approximate
04:48AM 59.3290 29.6890 125° Southeast  Level FlightAware Approximate
04:49AM 59.2472 29.9173 125° Southeast  Level FlightAware Approximate
04:50AM 59.1650 30.1444 125° Southeast  Level FlightAware Approximate
04:51AM 59.0824 30.3705 125° Southeast  Level FlightAware Approximate
04:52AM 58.9994 30.5954 126° Southeast  Level FlightAware Approximate
04:53AM 58.9160 30.8193 126° Southeast  Level FlightAware Approximate
04:54AM 58.8322 31.0421 126° Southeast  Level FlightAware Approximate
04:55AM 58.7481 31.2639 126° Southeast  Level FlightAware Approximate
04:56AM 58.6636 31.4845 126° Southeast  Level FlightAware Approximate
04:57AM 58.5787 31.7041 127° Southeast  Level FlightAware Approximate
04:58AM 58.4934 31.9226 127° Southeast  Level FlightAware Approximate
04:59AM 58.4077 32.1401 127° Southeast  Level FlightAware Approximate
05:00AM 58.3217 32.3565 127° Southeast  Level FlightAware Approximate
05:01AM 58.2353 32.5719 127° Southeast  Level FlightAware Approximate
05:02AM 58.1486 32.7862 127° Southeast  Level FlightAware Approximate
05:03AM 58.0615 32.9994 128° Southeast  Level FlightAware Approximate
05:04AM 57.9740 33.2117 128° Southeast  Level FlightAware Approximate
05:05AM 57.8862 33.4228 128° Southeast  Level FlightAware Approximate
05:06AM 57.7981 33.6330 128° Southeast  Level FlightAware Approximate
05:07AM 57.7096 33.8421 128° Southeast  Level FlightAware Approximate
05:08AM 57.6207 34.0502 129° Southeast  Level FlightAware Approximate
05:09AM 57.5316 34.2573 129° Southeast  Level FlightAware Approximate
05:10AM 57.4420 34.4634 129° Southeast  Level FlightAware Approximate
05:11AM 57.3472 34.6605 131° Southeast  Level FlightAware Approximate
05:12AM 57.2536 34.8591 131° Southeast  Level FlightAware Approximate
05:13AM 57.1667 35.0673 90° East  Level FlightAware Approximate
05:14AM 57.0784 35.2683 131° Southeast  Level FlightAware Approximate
05:15AM 56.9854 35.4665 129° Southeast  Level FlightAware Approximate
05:16AM 56.8956 35.6692 129° Southeast  Level FlightAware Approximate
05:17AM 56.8056 35.8709 129° Southeast  Level FlightAware Approximate
05:18AM 56.7130 36.0684 131° Southeast  Level FlightAware Approximate
05:19AM 56.6200 36.2646 131° Southeast  Level FlightAware Approximate
05:20AM 56.5266 36.4599 131° Southeast  Level FlightAware Approximate
05:21AM 56.4344 36.6563 130° Southeast  Level FlightAware Approximate
05:22AM 56.3413 36.8511 132° Southeast  Level FlightAware Approximate
05:23AM 56.2459 37.0416 132° Southeast  Level FlightAware Approximate
05:24AM 56.1474 37.2264 134° Southeast  Level FlightAware Approximate
05:25AM 56.0569 37.4229 127° Southeast  Level FlightAware Approximate
05:26AM 55.9726 37.4146 127° Southeast  Level Estimated
05:27AM 55.9726 37.4146 127° Southeast  Level Estimated
05:28AM 55.9726 37.4146 127° Southeast  Level Estimated
05:29AM 55.9726 37.4146 127° Southeast  Level Estimated
05:30AM 55.9726 37.4146 127° Southeast  Level Estimated
05:31AM 55.9726 37.4146 127° Southeast  Level Estimated
05:32AM 55.9726 37.4146 127° Southeast  Level Estimated
05:33AM 55.9726 37.4146 127° Southeast  Level Estimated
05:34AM 55.9726 37.4146 127° Southeast  Level Estimated
05:35AM 55.9726 37.4146 127° Southeast  Level Estimated
05:36AM 55.9726 37.4146 127° Southeast  Level Estimated
05:37AM 55.9726 37.4146 127° Southeast  Level Estimated
05:38AM 55.9726 37.4146 127° Southeast  Level Estimated
05:39AM 55.9726 37.4146 127° Southeast  Level Estimated